Time;durP1;ratioP1;P1;durP2;ratioP2;P2;SDS_P1;SDS_P2;PMS_P1;PMS_P2;Temp;Humidity;BMP_temperature;BMP_pressure;BME280_temperature;BME280_humidity;BME280_pressure;Samples;Min_cycle;Max_cycle;Signal;HPM_P1;HPM_P2
2023/07/06 00:00:01;;;;;;;1.20;1.10;;;18.70;99.90;;;;;;5182218;28;20033;-68
2023/07/06 00:02:33;;;;;;;1.20;1.10;;;18.60;1.00;;;;;;5203668;28;20051;-69
2023/07/06 00:05:07;;;;;;;1.20;1.13;;;18.50;1.00;;;;;;5199713;28;20036;-70
2023/07/06 00:07:41;;;;;;;1.45;1.35;;;18.40;1.00;;;;;;5198283;28;20048;-69
2023/07/06 00:10:13;;;;;;;1.33;1.10;;;18.40;1.00;;;;;;5200096;28;20039;-70
2023/07/06 00:12:47;;;;;;;1.75;1.20;;;18.40;1.00;;;;;;5203356;28;20028;-69
2023/07/06 00:15:18;;;;;;;1.38;1.10;;;18.50;99.90;;;;;;5180340;28;20033;-70
2023/07/06 00:17:55;;;;;;;2.30;0.90;;;18.50;99.90;;;;;;5214401;28;20021;-69
2023/07/06 00:20:35;;;;;;;1.45;1.02;;;18.50;99.90;;;;;;5181297;28;20041;-70
2023/07/06 00:23:11;;;;;;;1.33;1.20;;;18.50;1.00;;;;;;5176792;28;20033;-69
2023/07/06 00:25:42;;;;;;;1.17;1.08;;;18.50;1.00;;;;;;5185951;28;20047;-72
2023/07/06 00:28:14;;;;;;;1.48;1.20;;;18.50;1.00;;;;;;5195133;28;20067;-69
2023/07/06 00:33:18;;;;;;;1.33;1.23;;;18.50;1.00;;;;;;5197763;28;20040;-69
2023/07/06 00:35:50;;;;;;;1.40;1.15;;;18.40;1.00;;;;;;5182332;28;20454;-69
2023/07/06 00:38:26;;;;;;;1.25;1.08;;;18.40;1.00;;;;;;5220728;28;20530;-70
2023/07/06 00:40:58;;;;;;;1.10;0.90;;;18.40;1.00;;;;;;5204593;28;20033;-70
2023/07/06 00:43:51;;;;;;;1.08;0.90;;;18.40;1.00;;;;;;5186794;28;20071;-69
2023/07/06 00:46:29;;;;;;;1.17;1.08;;;18.40;1.00;;;;;;5209698;28;20032;-70
2023/07/06 00:49:09;;;;;;;1.95;1.10;;;18.40;99.90;;;;;;5188065;28;20039;-69
2023/07/06 00:51:41;;;;;;;1.80;1.00;;;18.50;1.00;;;;;;5222257;28;20025;-71
2023/07/06 00:54:19;;;;;;;1.38;1.10;;;18.40;1.00;;;;;;5203534;28;20301;-70
2023/07/06 00:56:52;;;;;;;0.90;0.90;;;18.30;1.00;;;;;;5194554;28;20029;-70
2023/07/06 00:59:29;;;;;;;1.10;1.00;;;18.20;1.00;;;;;;5199387;28;20033;-70
2023/07/06 01:02:01;;;;;;;1.15;1.02;;;18.10;50.70;;;;;;5255630;23;20028;-70
2023/07/06 01:04:34;;;;;;;0.82;0.80;;;18.00;99.90;;;;;;5129073;28;20046;-70
2023/07/06 01:07:10;;;;;;;1.30;1.20;;;17.90;99.90;;;;;;5144108;28;20048;-69
2023/07/06 01:09:52;;;;;;;0.80;0.80;;;17.90;99.90;;;;;;5160760;28;20043;-69
2023/07/06 01:12:27;;;;;;;1.10;1.00;;;17.90;99.90;;;;;;5109762;28;20417;-68
2023/07/06 01:15:00;;;;;;;1.48;1.10;;;17.80;99.90;;;;;;5145966;28;20057;-69
2023/07/06 01:17:45;;;;;;;1.20;1.10;;;17.80;99.90;;;;;;5143404;28;20026;-71
2023/07/06 01:20:22;;;;;;;1.95;1.00;;;17.80;99.90;;;;;;5161083;28;20022;-68
2023/07/06 01:23:11;;;;;;;1.35;0.90;;;17.80;99.90;;;;;;5162482;28;20218;-70
2023/07/06 01:26:34;;;;;;;1.60;0.85;;;17.80;99.90;;;;;;5164075;28;20026;-69
2023/07/06 01:29:24;;;;;;;0.80;0.80;;;17.80;99.90;;;;;;5097800;29;20300;-70
2023/07/06 01:32:08;;;;;;;1.00;1.00;;;17.80;99.90;;;;;;5081416;28;20035;-69
2023/07/06 01:34:48;;;;;;;;;;;17.90;99.90;;;;;;5126283;28;20061;-70
2023/07/06 01:37:34;;;;;;;2.25;1.17;;;17.90;99.90;;;;;;5141004;28;20098;-70
2023/07/06 01:40:09;;;;;;;1.65;1.00;;;18.00;99.90;;;;;;5140679;28;20044;-70
2023/07/06 01:42:42;;;;;;;1.60;1.30;;;17.80;1.00;;;;;;5131210;28;20188;-70
2023/07/06 01:45:18;;;;;;;1.85;1.65;;;17.60;1.00;;;;;;5208468;28;20149;-70
2023/07/06 01:47:57;;;;;;;1.40;1.17;;;17.40;1.00;;;;;;5158402;28;20045;-70
2023/07/06 01:51:13;;;;;;;1.38;1.27;;;17.20;1.00;;;;;;5162188;28;20022;-73
2023/07/06 01:54:05;;;;;;;1.90;1.35;;;17.00;1.00;;;;;;5132470;28;20042;-70
2023/07/06 01:56:50;;;;;;;1.42;1.30;;;16.90;27.80;;;;;;5152273;28;20030;-72
2023/07/06 01:59:28;;;;;;;1.75;1.10;;;16.80;99.90;;;;;;5135028;28;20460;-70
2023/07/06 02:02:07;;;;;;;1.52;1.40;;;16.60;99.90;;;;;;5145129;28;20489;-70
2023/07/06 02:04:43;;;;;;;1.05;1.05;;;16.50;99.90;;;;;;5125039;28;20463;-70
2023/07/06 02:07:20;;;;;;;2.38;1.08;;;16.40;99.90;;;;;;5123764;28;20041;-69
2023/07/06 02:09:54;;;;;;;1.08;1.02;;;16.30;99.90;;;;;;5120423;28;20042;-71
2023/07/06 02:12:25;;;;;;;;;;;16.20;99.90;;;;;;5106966;28;20065;-67
2023/07/06 02:14:58;;;;;;;3.15;1.42;;;16.10;99.90;;;;;;5121268;28;19918;-69
2023/07/06 02:17:37;;;;;;;1.40;1.30;;;16.10;99.90;;;;;;5103128;28;20030;-71
2023/07/06 02:20:10;;;;;;;2.92;1.67;;;16.10;99.90;;;;;;5105974;28;20033;-72
2023/07/06 02:22:42;;;;;;;1.80;1.40;;;16.10;99.90;;;;;;5098583;28;20042;-70
2023/07/06 02:25:14;;;;;;;3.90;1.42;;;16.10;99.90;;;;;;5122888;28;20035;-69
2023/07/06 02:27:49;;;;;;;1.60;1.20;;;16.10;99.90;;;;;;5188259;28;20031;-70
2023/07/06 02:30:21;;;;;;;1.75;1.45;;;16.10;99.90;;;;;;5145483;28;20512;-70
2023/07/06 02:32:59;;;;;;;2.10;1.05;;;16.10;99.90;;;;;;5223863;28;20025;-70
2023/07/06 02:35:32;;;;;;;1.73;1.13;;;16.10;99.90;;;;;;5185471;28;20055;-70
2023/07/06 02:38:03;;;;;;;0.98;0.95;;;16.30;99.90;;;;;;5136268;28;20038;-70
2023/07/06 02:40:35;;;;;;;1.45;1.27;;;16.20;99.90;;;;;;5122177;28;20633;-70
2023/07/06 02:43:07;;;;;;;1.50;1.40;;;16.20;99.90;;;;;;5104553;28;20588;-70
2023/07/06 02:45:38;;;;;;;2.15;1.30;;;16.20;99.90;;;;;;5106215;28;20043;-71
2023/07/06 02:48:12;;;;;;;1.30;1.20;;;16.20;99.90;;;;;;5208023;28;20410;-70
2023/07/06 02:50:52;;;;;;;1.38;1.27;;;16.20;99.90;;;;;;5209618;28;20038;-70
2023/07/06 02:53:24;;;;;;;1.25;1.20;;;16.20;99.90;;;;;;5174834;28;20023;-71
2023/07/06 02:55:55;;;;;;;1.85;1.60;;;16.20;99.90;;;;;;5112847;28;20372;-70
2023/07/06 02:58:27;;;;;;;1.45;1.35;;;16.20;99.90;;;;;;5123542;28;20035;-70
2023/07/06 03:00:58;;;;;;;1.63;1.52;;;16.20;99.90;;;;;;5147266;28;20037;-73
2023/07/06 03:03:32;;;;;;;2.97;1.38;;;16.20;99.90;;;;;;5139308;28;20372;-71
2023/07/06 03:06:07;;;;;;;1.47;1.37;;;16.10;99.90;;;;;;5123844;28;20038;-69
2023/07/06 03:08:38;;;;;;;;;;;16.10;99.90;;;;;;5125340;28;20038;-70
2023/07/06 03:11:11;;;;;;;1.23;1.13;;;16.00;99.90;;;;;;5145728;28;19916;-72
2023/07/06 03:13:47;;;;;;;1.88;1.67;;;16.00;99.90;;;;;;5136659;28;20041;-71
2023/07/06 03:16:21;;;;;;;1.55;1.42;;;16.00;99.90;;;;;;5102913;28;20521;-71
2023/07/06 03:18:56;;;;;;;1.65;1.55;;;16.00;99.90;;;;;;5105795;28;20592;-73
2023/07/06 03:21:28;;;;;;;2.45;1.40;;;16.00;99.90;;;;;;5104750;28;20035;-71
2023/07/06 03:23:59;;;;;;;1.40;1.30;;;16.00;99.90;;;;;;5120523;28;20046;-72
2023/07/06 03:26:40;;;;;;;1.63;1.27;;;16.00;99.90;;;;;;5103065;28;20034;-72
2023/07/06 03:29:14;;;;;;;1.70;1.60;;;16.10;99.90;;;;;;5100021;28;20034;-70
2023/07/06 03:31:46;;;;;;;2.03;1.58;;;16.10;99.90;;;;;;5169557;28;20039;-71
2023/07/06 03:34:20;;;;;;;2.00;1.65;;;16.10;99.90;;;;;;5136163;28;20035;-71
2023/07/06 03:36:59;;;;;;;1.42;1.33;;;16.10;99.90;;;;;;5184795;28;20050;-72
2023/07/06 03:39:30;;;;;;;2.90;1.30;;;16.00;99.90;;;;;;5104292;28;20026;-70
2023/07/06 03:42:02;;;;;;;2.30;1.55;;;16.00;99.90;;;;;;5089834;28;20361;-71
2023/07/06 03:44:39;;;;;;;1.83;1.13;;;16.00;99.90;;;;;;5133994;28;20041;-72
2023/07/06 03:47:11;;;;;;;1.50;1.40;;;16.00;99.90;;;;;;5086368;28;20031;-72
2023/07/06 03:49:42;;;;;;;1.90;1.40;;;16.00;99.90;;;;;;5119719;28;20053;-70
2023/07/06 03:52:17;;;;;;;2.47;1.50;;;16.00;99.90;;;;;;5103975;28;20038;-71
2023/07/06 03:54:48;;;;;;;2.65;1.48;;;16.10;99.90;;;;;;5136855;28;20038;-71
2023/07/06 03:57:23;;;;;;;1.13;1.10;;;16.20;99.90;;;;;;5119179;28;20053;-71
2023/07/06 03:59:57;;;;;;;1.33;1.08;;;16.20;99.90;;;;;;5101610;28;20043;-72
2023/07/06 04:02:31;;;;;;;1.30;1.20;;;16.30;99.90;;;;;;5148989;28;20414;-71
2023/07/06 04:05:02;;;;;;;3.77;1.30;;;16.30;99.90;;;;;;5154194;28;20030;-71
2023/07/06 04:07:34;;;;;;;1.58;1.40;;;16.40;99.90;;;;;;5103104;28;20669;-72
2023/07/06 04:10:08;;;;;;;1.30;1.20;;;16.50;99.90;;;;;;5103681;28;20225;-71
2023/07/06 04:12:42;;;;;;;1.08;1.05;;;16.60;99.90;;;;;;5136203;28;20048;-71
2023/07/06 04:15:17;;;;;;;2.70;1.30;;;16.70;99.90;;;;;;5130818;28;20043;-70
2023/07/06 04:17:50;;;;;;;1.38;1.27;;;16.80;99.90;;;;;;5104324;28;20866;-73
2023/07/06 04:20:24;;;;;;;1.70;1.17;;;16.90;99.90;;;;;;5103618;28;20031;-71
2023/07/06 04:22:57;;;;;;;2.05;1.58;;;17.10;99.90;;;;;;5118718;28;20037;-70
2023/07/06 04:25:36;;;;;;;2.08;1.40;;;17.10;61.00;;;;;;5142630;28;20021;-71
2023/07/06 04:28:11;;;;;;;1.35;1.25;;;17.20;1.00;;;;;;5177304;28;20057;-71
2023/07/06 04:30:48;;;;;;;1.50;1.40;;;17.30;1.00;;;;;;5118608;28;20027;-71
2023/07/06 04:33:21;;;;;;;1.58;1.48;;;17.40;1.00;;;;;;5139659;28;20034;-71
2023/07/06 04:35:56;;;;;;;1.30;1.20;;;17.50;1.00;;;;;;5151455;28;20037;-72
2023/07/06 04:38:29;;;;;;;1.35;1.23;;;17.60;1.00;;;;;;5102310;28;20045;-73
2023/07/06 04:41:04;;;;;;;1.55;1.23;;;17.60;1.00;;;;;;5102611;28;20033;-71
2023/07/06 04:43:38;;;;;;;2.45;1.30;;;17.80;1.00;;;;;;5103201;28;20506;-73
2023/07/06 04:46:10;;;;;;;1.02;1.00;;;18.10;1.00;;;;;;5124123;28;20034;-73
2023/07/06 04:48:44;;;;;;;3.25;1.17;;;18.50;1.00;;;;;;5119159;28;20042;-71
2023/07/06 04:51:19;;;;;;;1.98;1.45;;;18.60;1.00;;;;;;5144887;28;20031;-71
2023/07/06 04:53:51;;;;;;;1.08;0.98;;;18.60;1.00;;;;;;5119182;28;20027;-69
2023/07/06 04:56:22;;;;;;;3.85;1.20;;;18.60;1.00;;;;;;5117744;28;20452;-69
2023/07/06 04:58:53;;;;;;;2.15;1.50;;;18.60;1.00;;;;;;5116069;28;20033;-71
2023/07/06 05:01:27;;;;;;;1.00;0.85;;;18.60;1.00;;;;;;5136765;28;20480;-70
2023/07/06 05:04:04;;;;;;;1.60;1.50;;;18.60;1.00;;;;;;5137734;28;20379;-70
2023/07/06 05:06:36;;;;;;;1.42;1.00;;;18.70;1.00;;;;;;5101350;28;20433;-70
2023/07/06 05:09:07;;;;;;;1.80;1.20;;;18.70;1.00;;;;;;5184748;28;20027;-71
2023/07/06 05:11:41;;;;;;;1.48;1.20;;;18.80;1.00;;;;;;5103533;28;20035;-73
2023/07/06 05:14:13;;;;;;;1.33;1.23;;;18.90;1.00;;;;;;5118856;28;20049;-70
2023/07/06 05:16:53;;;;;;;1.48;1.10;;;19.00;99.90;;;;;;5100247;28;20042;-69
2023/07/06 05:19:27;;;;;;;3.33;1.20;;;19.10;99.90;;;;;;5135633;28;20027;-70
2023/07/06 05:22:02;;;;;;;1.67;1.30;;;19.30;99.90;;;;;;5104002;28;20031;-70
2023/07/06 05:24:39;;;;;;;2.03;1.33;;;19.40;1.00;;;;;;5107273;28;20275;-72
2023/07/06 05:27:13;;;;;;;2.22;1.70;;;19.50;1.00;;;;;;5141817;28;20043;-69
2023/07/06 05:29:46;;;;;;;2.03;1.40;;;19.50;1.00;;;;;;5184557;28;20032;-68
2023/07/06 05:32:18;;;;;;;1.13;1.00;;;19.60;1.00;;;;;;5183138;28;20035;-69
2023/07/06 05:34:49;;;;;;;1.85;1.38;;;19.60;1.00;;;;;;5107367;28;20463;-68
2023/07/06 05:37:24;;;;;;;1.20;1.10;;;19.40;1.00;;;;;;5126632;28;20042;-70
2023/07/06 05:39:59;;;;;;;1.60;1.30;;;19.40;1.00;;;;;;5119537;28;20034;-69
2023/07/06 05:42:36;;;;;;;1.30;1.20;;;19.30;1.00;;;;;;5138397;28;20029;-70
2023/07/06 05:45:08;;;;;;;2.30;1.52;;;19.20;1.00;;;;;;5106144;28;20051;-68
2023/07/06 05:47:40;;;;;;;1.40;1.30;;;19.20;1.00;;;;;;5139378;28;20380;-70
2023/07/06 05:50:11;;;;;;;1.40;1.30;;;19.10;1.00;;;;;;5140143;28;20057;-70
2023/07/06 05:52:45;;;;;;;1.77;1.42;;;19.10;1.00;;;;;;5141587;28;20026;-69
2023/07/06 05:55:20;;;;;;;;;;;19.10;1.00;;;;;;5122296;28;20050;-69
2023/07/06 05:57:53;;;;;;;1.50;1.40;;;19.30;1.00;;;;;;5105739;28;19921;-71
2023/07/06 06:00:36;;;;;;;1.98;1.25;;;19.30;1.00;;;;;;5187206;28;20257;-70
2023/07/06 06:03:08;;;;;;;2.10;1.45;;;19.40;1.00;;;;;;5157361;28;20034;-69
2023/07/06 06:05:42;;;;;;;1.52;1.42;;;19.40;1.00;;;;;;5158069;28;20030;-69
2023/07/06 06:08:18;;;;;;;3.05;1.80;;;19.40;1.00;;;;;;5124539;28;20049;-69
2023/07/06 06:10:50;;;;;;;1.67;1.40;;;19.60;1.00;;;;;;5178712;28;20033;-69
2023/07/06 06:13:27;;;;;;;2.15;1.83;;;19.70;99.90;;;;;;5119466;28;20021;-70
2023/07/06 06:15:58;;;;;;;1.20;1.10;;;19.80;99.90;;;;;;5110427;28;20431;-69
2023/07/06 06:18:34;;;;;;;1.67;1.48;;;20.20;1.00;;;;;;5104308;28;20502;-69
2023/07/06 06:21:07;;;;;;;2.83;1.40;;;20.40;1.00;;;;;;5153158;28;20248;-70
2023/07/06 06:23:42;;;;;;;1.20;1.15;;;20.80;1.00;;;;;;5138773;28;20031;-71
2023/07/06 06:26:15;;;;;;;2.92;1.25;;;21.20;1.00;;;;;;5105873;28;20048;-70
2023/07/06 06:28:47;;;;;;;1.45;1.30;;;21.60;99.90;;;;;;5121715;28;20342;-70
2023/07/06 06:31:19;;;;;;;3.20;1.38;;;22.10;96.50;;;;;;5104677;28;20169;-70
2023/07/06 06:33:54;;;;;;;2.08;1.27;;;22.10;1.00;;;;;;5105646;28;20031;-70
2023/07/06 06:36:27;;;;;;;;;;;21.80;1.00;;;;;;5138465;28;20031;-70
2023/07/06 06:39:01;;;;;;;1.95;1.40;;;21.70;1.00;;;;;;5137167;28;19936;-71
2023/07/06 06:41:32;;;;;;;1.93;1.73;;;21.80;1.00;;;;;;5120195;28;20097;-71
2023/07/06 06:44:09;;;;;;;1.80;1.60;;;21.70;99.90;;;;;;5157083;28;20025;-70
2023/07/06 06:46:40;;;;;;;2.25;1.23;;;21.80;1.00;;;;;;5240214;28;20508;-70
2023/07/06 06:49:12;;;;;;;3.08;1.17;;;22.30;99.90;;;;;;5209515;28;20481;-72
2023/07/06 06:51:45;;;;;;;2.00;1.23;;;22.40;99.90;;;;;;5176327;28;20443;-70
2023/07/06 06:54:19;;;;;;;1.48;1.10;;;22.50;99.90;;;;;;5142189;28;20041;-69
2023/07/06 06:56:50;;;;;;;1.52;1.42;;;22.40;98.40;;;;;;5150663;28;20035;-70
2023/07/06 06:59:25;;;;;;;1.88;1.55;;;22.40;46.90;;;;;;5131519;28;20047;-70
2023/07/06 07:02:00;;;;;;;1.70;1.30;;;22.30;1.00;;;;;;5110563;28;20039;-70
2023/07/06 07:04:31;;;;;;;1.63;1.45;;;22.30;1.00;;;;;;5138701;28;20058;-70
2023/07/06 07:07:03;;;;;;;3.28;2.15;;;22.00;1.00;;;;;;5166520;28;20034;-69
2023/07/06 07:09:37;;;;;;;1.88;1.40;;;22.10;1.00;;;;;;5193797;28;20050;-69
2023/07/06 07:12:14;;;;;;;3.15;1.38;;;22.00;1.00;;;;;;5159751;28;20039;-71
2023/07/06 07:14:48;;;;;;;1.50;1.40;;;21.80;1.00;;;;;;5115414;28;20348;-70
2023/07/06 07:17:20;;;;;;;3.20;1.35;;;21.90;1.00;;;;;;5155733;28;20043;-69
2023/07/06 07:19:52;;;;;;;1.42;1.30;;;22.10;1.00;;;;;;5129716;28;20052;-70
2023/07/06 07:22:23;;;;;;;1.30;1.20;;;22.10;1.00;;;;;;5165919;28;20031;-70
2023/07/06 07:24:59;;;;;;;2.20;1.42;;;22.40;1.00;;;;;;5135837;28;20046;-70
2023/07/06 07:27:34;;;;;;;1.83;1.10;;;22.40;1.00;;;;;;5136574;28;20045;-74
2023/07/06 07:30:11;;;;;;;;;;;22.70;1.00;;;;;;5116979;28;20096;-69
2023/07/06 07:32:43;;;;;;;1.85;1.40;;;23.30;99.90;;;;;;5125450;28;19914;-70
2023/07/06 07:35:18;;;;;;;1.65;1.38;;;23.10;1.00;;;;;;5129232;28;20719;-70
2023/07/06 07:37:53;;;;;;;1.25;1.15;;;23.00;1.00;;;;;;5172793;28;20045;-70
2023/07/06 07:40:29;;;;;;;1.73;1.25;;;23.00;1.00;;;;;;5113537;28;20642;-71
2023/07/06 07:43:01;;;;;;;2.03;1.40;;;23.30;1.00;;;;;;5143689;28;20039;-70
2023/07/06 07:45:32;;;;;;;2.75;1.20;;;23.20;1.00;;;;;;5158519;28;20048;-71
2023/07/06 07:48:04;;;;;;;3.08;1.80;;;23.30;1.00;;;;;;5134302;28;20098;-69
2023/07/06 07:50:36;;;;;;;1.55;1.27;;;23.10;99.90;;;;;;5130037;28;20039;-70
2023/07/06 07:53:10;;;;;;;1.90;1.42;;;22.80;99.90;;;;;;5126428;28;20036;-70
2023/07/06 07:55:41;;;;;;;2.75;1.55;;;22.80;99.90;;;;;;5161728;28;20246;-69
2023/07/06 07:58:15;;;;;;;2.15;1.63;;;22.80;99.90;;;;;;5173475;28;20053;-71
2023/07/06 08:00:57;;;;;;;2.58;1.35;;;23.10;99.90;;;;;;5128148;28;20041;-70
2023/07/06 08:03:28;;;;;;;2.20;1.80;;;23.20;1.00;;;;;;5142337;28;20152;-71
2023/07/06 08:06:05;;;;;;;3.60;1.90;;;23.00;1.00;;;;;;5180940;28;20135;-71
2023/07/06 08:08:38;;;;;;;1.27;1.17;;;23.00;1.00;;;;;;5170060;28;20022;-69
2023/07/06 08:11:20;;;;;;;2.35;1.67;;;23.10;1.00;;;;;;5143751;28;20029;-71
2023/07/06 08:13:56;;;;;;;2.10;1.40;;;23.30;1.00;;;;;;5158906;28;20036;-70
2023/07/06 08:16:32;;;;;;;1.70;1.45;;;23.30;1.00;;;;;;5114122;28;20573;-70
2023/07/06 08:19:07;;;;;;;1.75;1.52;;;23.60;1.00;;;;;;5156106;28;20042;-70
2023/07/06 08:21:40;;;;;;;2.65;1.40;;;23.70;1.00;;;;;;5107881;28;20036;-69
2023/07/06 08:24:16;;;;;;;1.25;1.15;;;23.50;1.00;;;;;;5125810;28;20042;-71
2023/07/06 08:26:49;;;;;;;2.40;1.38;;;23.90;1.00;;;;;;5119117;28;20034;-70
2023/07/06 08:29:21;;;;;;;2.28;1.40;;;23.90;1.00;;;;;;5190986;28;20028;-72
2023/07/06 08:31:53;;;;;;;1.35;1.25;;;23.10;1.00;;;;;;5133385;28;20038;-69
2023/07/06 08:34:27;;;;;;;1.83;1.40;;;23.00;1.00;;;;;;5135985;28;20380;-71
2023/07/06 08:37:01;;;;;;;;;;;23.10;1.00;;;;;;5140367;28;20533;-69
2023/07/06 08:39:33;;;;;;;1.38;1.10;;;23.00;1.00;;;;;;5119307;28;19909;-70
2023/07/06 08:42:09;;;;;;;1.63;1.40;;;23.50;5.20;;;;;;5129072;28;20039;-70
2023/07/06 08:44:43;;;;;;;1.67;1.40;;;23.80;1.20;;;;;;5117768;28;20044;-71
2023/07/06 08:47:15;;;;;;;2.08;1.45;;;24.00;1.00;;;;;;5114876;28;20061;-70
2023/07/06 08:49:46;;;;;;;1.38;1.20;;;23.90;1.00;;;;;;5150448;28;20027;-70
2023/07/06 08:52:19;;;;;;;1.98;1.42;;;24.20;1.00;;;;;;5172137;28;20036;-70
2023/07/06 08:54:52;;;;;;;2.17;1.58;;;24.30;1.00;;;;;;5163618;28;20455;-70
2023/07/06 08:57:26;;;;;;;3.58;1.67;;;24.50;99.90;;;;;;5120882;28;20383;-71
2023/07/06 08:59:57;;;;;;;5.00;1.80;;;24.70;99.90;;;;;;5131181;28;20033;-71
2023/07/06 09:02:31;;;;;;;1.73;1.42;;;24.80;99.90;;;;;;5174403;28;20040;-71
2023/07/06 09:05:14;;;;;;;;;;;24.50;78.30;;;;;;5150709;28;20019;-71
2023/07/06 09:07:47;;;;;;;2.78;1.88;;;24.30;1.00;;;;;;5138885;28;19902;-71
2023/07/06 09:10:23;;;;;;;1.90;1.48;;;24.60;1.00;;;;;;5130102;28;20611;-70
2023/07/06 09:13:11;;;;;;;2.38;1.42;;;24.50;1.00;;;;;;5137003;28;20045;-70
2023/07/06 09:15:48;;;;;;;2.70;1.83;;;24.60;1.00;;;;;;5130781;28;20242;-71
2023/07/06 09:18:22;;;;;;;1.73;1.50;;;24.20;1.00;;;;;;5144463;28;20045;-72
2023/07/06 09:20:54;;;;;;;;;;;25.00;1.00;;;;;;5115817;28;20031;-71
2023/07/06 09:23:27;;;;;;;2.85;1.73;;;25.70;1.00;;;;;;5187525;28;19909;-72
2023/07/06 09:26:01;;;;;;;2.60;1.83;;;26.00;1.00;;;;;;5141975;28;20057;-71
2023/07/06 09:28:35;;;;;;;2.80;1.38;;;26.10;1.00;;;;;;5154781;28;20038;-71
2023/07/06 09:31:21;;;;;;;3.10;2.17;;;26.20;1.00;;;;;;5119431;28;20359;-71
2023/07/06 09:33:58;;;;;;;2.00;1.67;;;26.00;1.00;;;;;;5115094;28;20033;-72
2023/07/06 09:36:29;;;;;;;3.00;1.55;;;25.80;1.00;;;;;;5108533;28;20054;-71
2023/07/06 09:39:09;;;;;;;2.58;1.58;;;25.20;1.00;;;;;;5145465;28;20224;-72
2023/07/06 09:41:45;;;;;;;2.92;1.65;;;25.20;1.00;;;;;;5154542;28;20021;-71
2023/07/06 09:44:30;;;;;;;2.22;1.50;;;26.10;1.00;;;;;;5138363;28;20029;-71
2023/07/06 09:47:08;;;;;;;2.28;1.60;;;26.50;1.00;;;;;;5137991;28;20035;-71
2023/07/06 09:50:06;;;;;;;2.17;1.90;;;27.00;1.00;;;;;;5100482;28;20035;-74
2023/07/06 09:52:39;;;;;;;1.70;1.33;;;27.10;99.90;;;;;;5135548;28;20571;-71
2023/07/06 09:55:29;;;;;;;3.72;1.88;;;26.00;99.90;;;;;;5106618;28;20553;-71
2023/07/06 09:58:02;;;;;;;3.33;1.55;;;25.50;99.90;;;;;;5127919;28;20042;-70
2023/07/06 10:00:46;;;;;;;2.17;1.70;;;25.20;99.90;;;;;;5098091;28;20038;-72
2023/07/06 10:03:36;;;;;;;1.75;1.60;;;25.50;99.90;;;;;;5135997;28;20043;-70
2023/07/06 10:06:22;;;;;;;2.53;1.50;;;26.10;99.90;;;;;;5108977;28;20039;-73
2023/07/06 10:09:14;;;;;;;1.90;1.42;;;26.00;99.90;;;;;;5141481;28;20209;-71
2023/07/06 10:12:03;;;;;;;2.15;1.70;;;26.30;99.90;;;;;;5134561;28;20019;-72
2023/07/06 10:14:52;;;;;;;2.25;1.50;;;26.90;1.00;;;;;;5140430;28;20035;-72
2023/07/06 10:17:26;;;;;;;6.22;2.30;;;27.80;99.90;;;;;;5134108;28;20338;-72
2023/07/06 10:20:17;;;;;;;;;;;27.60;99.90;;;;;;5149103;28;20043;-71
2023/07/06 10:23:04;;;;;;;2.75;1.83;;;27.60;99.90;;;;;;5134235;28;19910;-70
2023/07/06 10:25:35;;;;;;;3.40;1.77;;;26.90;99.90;;;;;;5147112;28;20015;-71
2023/07/06 10:28:19;;;;;;;2.33;1.25;;;27.30;99.90;;;;;;5155111;28;20020;-71
2023/07/06 10:30:57;;;;;;;1.73;1.42;;;27.90;99.90;;;;;;5120894;28;20491;-72
2023/07/06 10:33:52;;;;;;;2.30;1.63;;;27.70;99.90;;;;;;5136600;28;20132;-73
2023/07/06 10:36:32;;;;;;;2.40;2.00;;;27.40;99.90;;;;;;5142573;28;20047;-71
2023/07/06 10:39:25;;;;;;;2.85;1.65;;;28.20;98.60;;;;;;5142365;28;20345;-71
2023/07/06 10:42:05;;;;;;;3.40;1.77;;;29.00;99.90;;;;;;5138651;28;20031;-71
2023/07/06 10:44:46;;;;;;;1.58;1.30;;;29.50;99.90;;;;;;5185328;28;20255;-71
2023/07/06 10:47:37;;;;;;;4.60;2.05;;;29.80;99.90;;;;;;5116977;28;20241;-71
2023/07/06 10:50:19;;;;;;;2.10;1.27;;;29.20;42.90;;;;;;5143648;28;20038;-71
2023/07/06 10:52:57;;;;;;;2.55;1.50;;;29.20;1.00;;;;;;5114833;28;20032;-72
2023/07/06 10:55:36;;;;;;;2.38;1.70;;;28.80;1.00;;;;;;5133538;28;20030;-73
2023/07/06 10:58:30;;;;;;;1.50;1.40;;;29.30;1.00;;;;;;5127663;28;20042;-71
2023/07/06 11:01:09;;;;;;;2.25;1.42;;;28.90;1.00;;;;;;5131230;28;20043;-70
2023/07/06 11:03:43;;;;;;;2.45;1.48;;;29.70;1.00;;;;;;5143427;28;20027;-72
2023/07/06 11:06:51;;;;;;;1.77;1.38;;;30.60;1.00;;;;;;5141951;28;20036;-71
2023/07/06 11:09:24;;;;;;;2.42;1.80;;;29.90;1.00;;;;;;5139874;28;20035;-70
2023/07/06 11:11:55;;;;;;;1.52;1.33;;;29.60;1.00;;;;;;5106623;28;20092;-71
2023/07/06 11:14:34;;;;;;;2.22;1.40;;;29.40;1.00;;;;;;5121435;28;20247;-70
2023/07/06 11:17:48;;;;;;;1.42;1.30;;;29.00;1.00;;;;;;5114798;28;20038;-70
2023/07/06 11:20:26;;;;;;;1.85;1.30;;;29.40;1.00;;;;;;5063542;28;20024;-71
2023/07/06 11:23:06;;;;;;;3.97;1.45;;;29.20;1.00;;;;;;5079532;28;20034;-72
2023/07/06 11:25:42;;;;;;;2.05;1.60;;;28.40;1.00;;;;;;5079284;28;20463;-72
2023/07/06 11:28:17;;;;;;;3.92;1.50;;;28.30;1.00;;;;;;5094296;28;20058;-70
2023/07/06 11:31:55;;;;;;;3.47;1.65;;;29.00;1.00;;;;;;5081202;28;20115;-72
2023/07/06 11:34:49;;;;;;;4.22;1.90;;;30.20;1.00;;;;;;5151535;28;20034;-73
2023/07/06 11:37:58;;;;;;;2.85;1.65;;;30.60;1.00;;;;;;5156313;28;20552;-71
2023/07/06 11:40:38;;;;;;;1.80;1.63;;;30.10;1.00;;;;;;5093510;28;20476;-70
2023/07/06 11:43:36;;;;;;;2.88;1.80;;;28.80;1.00;;;;;;5084837;28;20056;-70
2023/07/06 11:46:23;;;;;;;2.47;1.63;;;27.90;1.00;;;;;;5075914;28;20201;-71
2023/07/06 11:49:06;;;;;;;4.85;1.88;;;28.40;1.00;;;;;;5078281;28;20134;-71
2023/07/06 11:51:38;;;;;;;2.17;1.48;;;28.90;1.00;;;;;;5077031;28;20032;-71
2023/07/06 11:54:39;;;;;;;2.42;1.67;;;29.30;1.00;;;;;;5098463;28;20347;-71
2023/07/06 11:57:44;;;;;;;3.35;1.90;;;29.60;1.00;;;;;;5147843;28;20037;-71
2023/07/06 12:02:58;;;;;;;2.72;1.73;;;32.10;1.00;;;;;;5146259;28;20038;-73
2023/07/06 12:05:33;;;;;;;3.40;1.77;;;32.60;1.00;;;;;;5125121;28;20058;-71
2023/07/06 12:08:27;;;;;;;2.58;1.70;;;32.90;1.00;;;;;;5119656;28;20042;-70
2023/07/06 12:11:15;;;;;;;2.30;1.75;;;33.70;19.60;;;;;;5097056;28;20054;-71
2023/07/06 12:13:52;;;;;;;2.05;1.60;;;34.50;1.00;;;;;;5136140;28;20042;-71
2023/07/06 12:16:31;;;;;;;2.25;1.80;;;33.20;1.00;;;;;;5130778;28;20039;-71
2023/07/06 12:19:07;;;;;;;1.52;1.25;;;32.70;1.00;;;;;;5139561;28;20129;-71
2023/07/06 12:21:47;;;;;;;2.13;1.77;;;32.20;1.00;;;;;;5127084;28;20598;-71
2023/07/06 12:24:29;;;;;;;1.67;1.35;;;30.30;1.00;;;;;;5110115;28;20039;-71
2023/07/06 12:27:03;;;;;;;2.35;1.40;;;32.50;1.00;;;;;;5141465;28;20031;-71
2023/07/06 12:29:36;;;;;;;2.03;1.50;;;31.70;1.00;;;;;;5118669;28;20057;-72
2023/07/06 12:32:22;;;;;;;2.00;1.42;;;30.70;1.00;;;;;;5121790;28;20038;-71
2023/07/06 12:34:53;;;;;;;2.05;1.10;;;30.90;1.00;;;;;;5107114;28;20049;-71
2023/07/06 12:37:25;;;;;;;1.63;1.52;;;31.20;1.00;;;;;;5127958;28;20052;-71
2023/07/06 12:39:57;;;;;;;1.60;1.17;;;32.30;1.00;;;;;;5132496;28;20051;-70
2023/07/06 12:42:29;;;;;;;1.88;1.40;;;32.70;1.00;;;;;;5110923;28;20039;-70
2023/07/06 12:45:02;;;;;;;2.88;1.80;;;33.30;1.00;;;;;;5121465;28;20030;-72
2023/07/06 12:47:43;;;;;;;2.20;1.38;;;33.80;1.00;;;;;;5119317;28;20061;-71
2023/07/06 12:50:25;;;;;;;1.92;1.63;;;33.60;1.00;;;;;;5145025;28;20024;-72
2023/07/06 12:53:08;;;;;;;1.40;1.27;;;34.30;1.00;;;;;;5125128;28;20057;-71
2023/07/06 12:55:41;;;;;;;3.13;1.77;;;35.30;1.00;;;;;;5138869;28;20514;-71
2023/07/06 12:58:34;;;;;;;3.88;2.05;;;36.00;1.00;;;;;;5105625;28;20046;-71
2023/07/06 13:01:20;;;;;;;2.00;1.60;;;37.20;1.00;;;;;;5148656;28;20031;-73
2023/07/06 13:03:56;;;;;;;3.05;2.10;;;37.70;1.00;;;;;;5123609;28;20458;-71
2023/07/06 13:06:29;;;;;;;2.55;1.60;;;37.00;1.00;;;;;;5122368;28;20038;-70
2023/07/06 13:09:05;;;;;;;1.73;1.52;;;36.40;1.00;;;;;;5074075;28;20047;-73
2023/07/06 13:11:39;;;;;;;3.70;1.73;;;35.10;1.00;;;;;;5123457;28;20216;-71
2023/07/06 13:14:16;;;;;;;1.67;1.35;;;34.90;1.00;;;;;;5095265;28;20347;-71
2023/07/06 13:16:59;;;;;;;1.73;1.35;;;34.70;1.00;;;;;;5119383;28;20672;-72
2023/07/06 13:19:34;;;;;;;1.85;1.60;;;34.40;1.00;;;;;;5096120;28;20047;-71
2023/07/06 13:22:05;;;;;;;1.60;1.17;;;32.30;1.00;;;;;;5126311;28;20121;-70
2023/07/06 13:24:40;;;;;;;1.88;1.63;;;31.40;1.00;;;;;;5130011;28;20047;-72
2023/07/06 13:27:17;;;;;;;1.67;1.30;;;33.00;1.00;;;;;;5135833;28;20084;-71
2023/07/06 13:29:50;;;;;;;2.25;1.55;;;34.00;1.00;;;;;;5190655;28;20050;-72
2023/07/06 13:32:22;;;;;;;1.60;1.48;;;35.30;1.00;;;;;;5115565;28;20058;-71
2023/07/06 13:34:53;;;;;;;1.75;1.55;;;35.60;1.00;;;;;;5123561;28;20046;-71
2023/07/06 13:37:29;;;;;;;2.25;1.73;;;35.50;1.00;;;;;;5123840;28;20046;-71
2023/07/06 13:40:00;;;;;;;2.60;1.52;;;34.50;1.00;;;;;;5126720;28;20475;-73
2023/07/06 13:42:33;;;;;;;2.03;1.42;;;34.70;1.00;;;;;;5147639;28;20037;-71
2023/07/06 13:45:18;;;;;;;2.58;1.50;;;35.50;1.00;;;;;;5115943;28;20057;-70
2023/07/06 13:47:53;;;;;;;1.52;1.40;;;35.60;1.00;;;;;;5096715;28;20323;-71
2023/07/06 13:50:27;;;;;;;2.45;1.67;;;35.60;1.00;;;;;;5148280;28;20037;-71